createdAt,value
2023-05-30T00:01:21.005Z,2.40
2023-05-30T00:03:50.377Z,3.00
2023-05-30T00:06:19.192Z,2.80
2023-05-30T00:08:47.557Z,2.60
2023-05-30T00:11:15.830Z,3.20
2023-05-30T00:13:44.790Z,2.70
2023-05-30T00:16:15.680Z,2.60
2023-05-30T00:18:44.864Z,3.10
2023-05-30T00:21:13.563Z,2.80
2023-05-30T00:23:41.949Z,2.90
2023-05-30T00:26:10.206Z,2.50
2023-05-30T00:28:40.100Z,2.70
2023-05-30T00:31:09.094Z,2.60
2023-05-30T00:33:37.072Z,2.60
2023-05-30T00:36:05.801Z,2.90
2023-05-30T00:38:33.814Z,2.80
2023-05-30T00:41:03.977Z,3.10
2023-05-30T00:43:32.161Z,2.70
2023-05-30T00:46:02.189Z,2.60
2023-05-30T00:48:30.606Z,2.60
2023-05-30T00:50:59.552Z,2.60
2023-05-30T00:53:29.705Z,2.90
2023-05-30T00:56:00.190Z,3.30
2023-05-30T00:58:28.521Z,2.90
2023-05-30T01:00:59.267Z,3.20
2023-05-30T01:03:34.913Z,2.90
2023-05-30T01:06:05.167Z,2.80
2023-05-30T01:08:33.866Z,2.50
2023-05-30T01:11:10.735Z,3.30
2023-05-30T01:13:52.264Z,3.10
2023-05-30T01:16:26.880Z,2.50
2023-05-30T01:19:33.215Z,3.00
2023-05-30T01:24:53.596Z,3.00
2023-05-30T01:27:56.382Z,2.40
2023-05-30T01:30:27.377Z,2.60
2023-05-30T01:32:55.674Z,2.80
2023-05-30T01:35:25.859Z,3.00
2023-05-30T01:37:54.128Z,2.80
2023-05-30T01:40:25.683Z,2.80
2023-05-30T01:43:25.296Z,2.70
2023-05-30T01:46:09.428Z,2.70
2023-05-30T01:48:45.706Z,2.90
2023-05-30T01:51:21.349Z,2.30
2023-05-30T01:53:57.776Z,2.40
2023-05-30T01:56:29.303Z,2.50
2023-05-30T01:58:58.517Z,2.80
2023-05-30T02:01:30.233Z,2.50
2023-05-30T02:03:59.121Z,2.70
2023-05-30T02:06:27.503Z,3.10
2023-05-30T02:08:55.575Z,3.10
2023-05-30T02:11:24.078Z,3.50
2023-05-30T02:13:54.645Z,2.70
2023-05-30T02:16:22.881Z,2.80
2023-05-30T02:18:51.783Z,2.30
2023-05-30T02:21:22.350Z,2.60
2023-05-30T02:23:51.211Z,2.70
2023-05-30T02:26:19.548Z,2.60
2023-05-30T02:28:48.050Z,3.20
2023-05-30T02:31:17.042Z,2.90
2023-05-30T02:33:45.827Z,2.80
2023-05-30T02:36:14.925Z,2.90
2023-05-30T02:38:43.838Z,3.00
2023-05-30T02:41:13.019Z,3.40
2023-05-30T02:43:42.462Z,3.30
2023-05-30T02:46:10.794Z,2.80
2023-05-30T02:48:41.427Z,3.20
2023-05-30T02:51:09.710Z,3.20
2023-05-30T02:53:38.398Z,2.90
2023-05-30T02:56:07.493Z,3.10
2023-05-30T02:59:07.719Z,2.80
2023-05-30T03:01:55.016Z,2.90
2023-05-30T03:04:23.827Z,3.50
2023-05-30T03:06:53.435Z,3.80
2023-05-30T03:09:24.693Z,3.00
2023-05-30T03:11:52.910Z,3.20
2023-05-30T03:14:22.193Z,3.20
2023-05-30T03:16:50.262Z,3.00
2023-05-30T03:19:20.251Z,3.10
2023-05-30T03:21:50.988Z,2.80
2023-05-30T03:24:20.284Z,3.30
2023-05-30T03:26:51.471Z,2.90
2023-05-30T03:29:21.340Z,3.00
2023-05-30T03:31:50.183Z,2.70
2023-05-30T03:34:18.608Z,3.00
2023-05-30T03:36:47.295Z,3.10
2023-05-30T03:39:15.674Z,3.70
2023-05-30T03:41:43.952Z,2.70
2023-05-30T03:44:13.495Z,2.90
2023-05-30T03:46:41.999Z,3.60
2023-05-30T03:49:10.521Z,3.40
2023-05-30T03:51:38.902Z,3.20
2023-05-30T03:54:09.945Z,3.40
2023-05-30T03:56:37.869Z,3.30
2023-05-30T03:59:09.863Z,3.10
2023-05-30T04:01:39.197Z,3.40
2023-05-30T04:04:07.384Z,3.60
2023-05-30T04:06:37.919Z,3.20
2023-05-30T04:09:07.012Z,3.60
2023-05-30T04:11:35.461Z,3.30
2023-05-30T04:14:04.123Z,3.60
2023-05-30T04:16:32.890Z,3.50
2023-05-30T04:19:00.913Z,3.20
2023-05-30T04:21:30.349Z,3.50
2023-05-30T04:23:58.286Z,3.40
2023-05-30T04:26:26.688Z,3.50
2023-05-30T04:28:58.404Z,3.60
2023-05-30T04:31:27.123Z,3.40
2023-05-30T04:33:57.343Z,3.60
2023-05-30T04:36:28.728Z,3.40
2023-05-30T04:38:57.155Z,3.70
2023-05-30T04:41:27.898Z,3.70
2023-05-30T04:43:59.442Z,4.00
2023-05-30T04:46:30.347Z,3.60
2023-05-30T04:49:03.151Z,3.90
2023-05-30T04:51:34.728Z,3.80
2023-05-30T04:54:03.423Z,4.00
2023-05-30T04:56:32.098Z,3.70
2023-05-30T04:59:00.782Z,3.30
2023-05-30T05:01:29.577Z,3.50
2023-05-30T05:03:57.790Z,3.30
2023-05-30T05:06:26.534Z,3.30
2023-05-30T05:08:54.428Z,3.50
2023-05-30T05:11:22.827Z,3.20
2023-05-30T05:13:50.696Z,3.00
2023-05-30T05:16:18.630Z,3.90
2023-05-30T05:18:47.202Z,3.50
2023-05-30T05:21:15.767Z,3.40
2023-05-30T05:23:44.083Z,3.30
2023-05-30T05:26:13.053Z,3.30
2023-05-30T05:28:42.096Z,3.60
2023-05-30T05:31:09.956Z,3.20
2023-05-30T05:33:37.884Z,3.60
2023-05-30T05:36:08.133Z,4.00
2023-05-30T05:38:36.495Z,3.00
2023-05-30T05:41:04.411Z,3.90
2023-05-30T05:43:32.279Z,3.40
2023-05-30T05:46:00.581Z,3.30
2023-05-30T05:48:29.003Z,3.40
2023-05-30T05:50:57.611Z,2.90
2023-05-30T05:53:26.731Z,3.50
2023-05-30T05:55:56.162Z,3.60
2023-05-30T05:58:24.448Z,3.30
2023-05-30T06:00:52.815Z,3.50
2023-05-30T06:03:21.257Z,3.20
2023-05-30T06:05:49.993Z,3.00
2023-05-30T06:08:17.959Z,4.80
2023-05-30T06:10:46.638Z,3.00
2023-05-30T06:13:17.058Z,2.80
2023-05-30T06:15:44.940Z,3.00
2023-05-30T06:18:13.694Z,2.90
2023-05-30T06:20:42.183Z,3.00
2023-05-30T06:23:10.099Z,2.80
2023-05-30T06:25:37.925Z,3.20
2023-05-30T06:28:06.582Z,2.80
2023-05-30T06:30:34.548Z,3.40
2023-05-30T06:33:04.546Z,3.20
2023-05-30T06:35:33.206Z,2.80
2023-05-30T06:38:01.809Z,3.00
2023-05-30T06:40:29.717Z,2.70
2023-05-30T06:42:58.451Z,2.90
2023-05-30T06:45:26.839Z,2.50
2023-05-30T06:47:55.517Z,2.60
2023-05-30T06:50:23.725Z,2.40
2023-05-30T06:52:53.596Z,3.00
2023-05-30T06:55:22.388Z,2.60
2023-05-30T06:57:55.777Z,2.50
2023-05-30T07:00:23.735Z,2.80
2023-05-30T07:02:52.025Z,3.00
2023-05-30T07:05:20.489Z,2.50
2023-05-30T07:07:48.804Z,2.30
2023-05-30T07:10:20.410Z,2.50
2023-05-30T07:12:48.350Z,2.40
2023-05-30T07:15:17.103Z,2.40
2023-05-30T07:17:46.054Z,2.40
2023-05-30T07:20:15.477Z,2.40
2023-05-30T07:22:43.704Z,2.40
2023-05-30T07:25:13.073Z,2.20
2023-05-30T07:27:41.498Z,2.30
2023-05-30T07:30:10.148Z,2.00
2023-05-30T07:32:38.469Z,2.40
2023-05-30T07:35:07.163Z,2.10
2023-05-30T07:37:38.799Z,2.20
2023-05-30T07:40:08.615Z,2.10
2023-05-30T07:42:39.954Z,2.00
2023-05-30T07:45:08.747Z,1.90
2023-05-30T07:47:37.183Z,2.20
2023-05-30T07:50:07.758Z,1.60
2023-05-30T07:52:37.128Z,2.40
2023-05-30T07:55:06.145Z,1.50
2023-05-30T07:57:34.411Z,1.80
2023-05-30T08:00:02.882Z,1.70
2023-05-30T08:02:40.083Z,1.80
2023-05-30T08:05:08.837Z,1.70
2023-05-30T08:07:37.688Z,1.70
2023-05-30T08:10:08.497Z,2.00
2023-05-30T08:12:37.464Z,1.60
2023-05-30T08:15:08.921Z,1.70
2023-05-30T08:17:37.227Z,1.70
2023-05-30T08:20:08.137Z,1.90
2023-05-30T08:22:37.897Z,1.70
2023-05-30T08:25:07.163Z,1.60
2023-05-30T08:27:35.723Z,1.40
2023-05-30T08:30:04.529Z,2.30
2023-05-30T08:32:34.754Z,1.70
2023-05-30T08:35:03.543Z,1.70
2023-05-30T08:37:31.473Z,2.10
2023-05-30T08:39:59.688Z,2.00
2023-05-30T08:42:27.735Z,1.50
2023-05-30T08:44:55.721Z,1.60
2023-05-30T08:47:24.942Z,1.40
2023-05-30T08:49:54.421Z,1.90
2023-05-30T08:52:29.828Z,1.80
2023-05-30T08:55:08.787Z,2.00
2023-05-30T08:57:49.893Z,1.50
2023-05-30T09:00:19.466Z,1.60
2023-05-30T09:02:57.445Z,1.80
2023-05-30T09:05:27.033Z,1.80
2023-05-30T09:07:58.182Z,1.60
2023-05-30T09:10:29.789Z,1.80
2023-05-30T09:13:01.161Z,1.60
2023-05-30T09:15:29.372Z,1.70
2023-05-30T09:17:58.104Z,1.90
2023-05-30T09:20:31.750Z,1.40
2023-05-30T09:23:03.059Z,1.50
2023-05-30T09:25:49.800Z,1.90
2023-05-30T09:28:29.637Z,1.60
2023-05-30T09:31:02.985Z,2.00
2023-05-30T09:33:50.679Z,1.70
2023-05-30T09:36:21.741Z,2.00
2023-05-30T09:38:57.697Z,1.40
2023-05-30T09:41:27.826Z,1.30
2023-05-30T09:43:58.056Z,1.10
2023-05-30T09:46:31.678Z,1.50
2023-05-30T09:49:00.388Z,1.80
2023-05-30T09:51:31.010Z,1.50
2023-05-30T09:54:05.116Z,1.40
2023-05-30T09:56:44.055Z,1.50
2023-05-30T09:59:14.628Z,1.70
2023-05-30T10:01:44.984Z,1.60
2023-05-30T10:04:16.520Z,1.60
2023-05-30T10:06:47.840Z,1.60
2023-05-30T10:09:17.173Z,1.60
2023-05-30T10:11:46.106Z,1.40
2023-05-30T10:14:15.186Z,1.50
2023-05-30T10:16:50.449Z,1.40
2023-05-30T10:19:26.277Z,1.90
2023-05-30T10:22:00.639Z,1.60
2023-05-30T10:24:30.333Z,2.10
2023-05-30T10:27:05.678Z,1.40
2023-05-30T10:29:47.771Z,1.60
2023-05-30T10:32:25.599Z,1.60
2023-05-30T10:35:00.441Z,1.40
2023-05-30T10:37:29.033Z,1.60
2023-05-30T10:40:26.635Z,1.40
2023-05-30T10:43:06.798Z,1.40
2023-05-30T10:46:05.684Z,1.60
2023-05-30T10:48:48.825Z,1.70
2023-05-30T10:51:17.877Z,1.70
2023-05-30T10:53:49.418Z,1.40
2023-05-30T10:56:41.839Z,1.70
2023-05-30T10:59:19.745Z,1.30
2023-05-30T11:02:02.756Z,1.30
2023-05-30T11:04:46.380Z,1.60
2023-05-30T11:07:15.540Z,1.50
2023-05-30T11:10:02.546Z,1.50
2023-05-30T11:12:31.485Z,1.30
2023-05-30T11:15:01.627Z,1.50
2023-05-30T11:17:36.012Z,1.70
2023-05-30T11:20:18.641Z,2.20
2023-05-30T11:23:02.360Z,1.40
2023-05-30T11:25:33.869Z,1.50
2023-05-30T11:28:04.741Z,1.50
2023-05-30T11:30:39.440Z,1.40
2023-05-30T11:33:12.143Z,1.50
2023-05-30T11:35:43.750Z,1.30
2023-05-30T11:38:20.963Z,1.20
2023-05-30T11:40:52.561Z,1.60
2023-05-30T11:43:21.573Z,1.30
2023-05-30T11:45:57.991Z,1.50
2023-05-30T11:48:26.344Z,1.40
2023-05-30T11:50:56.891Z,1.70
2023-05-30T11:53:26.407Z,1.60
2023-05-30T11:55:54.839Z,1.50
2023-05-30T11:58:23.746Z,1.40
2023-05-30T12:00:53.402Z,1.50
2023-05-30T12:03:25.474Z,1.50
2023-05-30T12:05:53.836Z,1.30
2023-05-30T12:08:22.821Z,1.60
2023-05-30T12:10:51.863Z,1.40
2023-05-30T12:13:20.803Z,1.10
2023-05-30T12:15:51.132Z,1.40
2023-05-30T12:18:21.492Z,1.60
2023-05-30T12:20:52.697Z,1.50
2023-05-30T12:23:26.875Z,1.50
2023-05-30T12:25:56.848Z,1.40
2023-05-30T12:28:25.485Z,1.20
2023-05-30T12:30:55.159Z,1.30
2023-05-30T12:33:25.065Z,1.30
2023-05-30T12:35:57.650Z,1.40
2023-05-30T12:38:25.723Z,1.50
2023-05-30T12:40:54.021Z,1.30
2023-05-30T12:43:29.718Z,1.40
2023-05-30T12:46:11.475Z,1.30
2023-05-30T12:48:39.849Z,1.40
2023-05-30T12:51:08.678Z,1.40
2023-05-30T12:53:36.891Z,1.50
2023-05-30T12:56:05.394Z,1.30
2023-05-30T12:58:34.181Z,1.30
2023-05-30T13:01:02.830Z,1.30
2023-05-30T13:03:32.981Z,1.30
2023-05-30T13:06:01.371Z,1.60
2023-05-30T13:08:30.465Z,1.30
2023-05-30T13:10:59.844Z,1.00
2023-05-30T13:13:31.641Z,1.30
2023-05-30T13:15:59.699Z,1.50
2023-05-30T13:18:28.209Z,1.30
2023-05-30T13:20:57.572Z,1.40
2023-05-30T13:23:25.912Z,1.50
2023-05-30T13:25:54.547Z,1.30
2023-05-30T13:28:22.856Z,1.30
2023-05-30T13:30:51.809Z,1.20
2023-05-30T13:33:20.838Z,1.30
2023-05-30T13:35:48.878Z,1.30
2023-05-30T13:38:17.079Z,1.60
2023-05-30T13:40:44.937Z,1.20
2023-05-30T13:43:13.807Z,1.20
2023-05-30T13:45:42.969Z,1.60
2023-05-30T13:48:11.907Z,1.50
2023-05-30T13:50:39.883Z,1.40
2023-05-30T13:53:08.585Z,1.70
2023-05-30T13:55:37.301Z,1.40
2023-05-30T13:58:08.338Z,1.00
2023-05-30T14:00:36.915Z,1.40
2023-05-30T14:03:06.090Z,1.40
2023-05-30T14:05:36.461Z,1.40
2023-05-30T14:08:05.410Z,1.30
2023-05-30T14:10:33.340Z,1.50
2023-05-30T14:13:02.210Z,1.60
2023-05-30T14:15:32.369Z,1.40
2023-05-30T14:18:00.904Z,1.60
2023-05-30T14:20:28.935Z,1.20
2023-05-30T14:22:57.620Z,1.40
2023-05-30T14:25:25.556Z,1.60
2023-05-30T14:27:54.093Z,1.10
2023-05-30T14:30:22.335Z,1.50
2023-05-30T14:32:51.269Z,1.60
2023-05-30T14:35:20.131Z,1.40
2023-05-30T14:37:48.178Z,1.60
2023-05-30T14:40:16.874Z,1.60
2023-05-30T14:42:45.255Z,1.60
2023-05-30T14:45:13.252Z,1.40
2023-05-30T14:47:41.230Z,1.10
2023-05-30T14:50:11.207Z,1.40
2023-05-30T14:52:39.204Z,1.70
2023-05-30T14:55:08.409Z,1.80
2023-05-30T14:57:36.835Z,1.50
2023-05-30T15:00:06.794Z,1.30
2023-05-30T15:02:35.468Z,1.50
2023-05-30T15:05:04.301Z,1.60
2023-05-30T15:07:32.948Z,1.50
2023-05-30T15:10:01.638Z,1.50
2023-05-30T15:12:30.444Z,1.30
2023-05-30T15:14:59.003Z,1.40
2023-05-30T15:17:27.720Z,1.50
2023-05-30T15:19:56.417Z,1.40
2023-05-30T15:22:24.468Z,1.30
2023-05-30T15:24:52.446Z,1.40
2023-05-30T15:27:21.048Z,1.50
2023-05-30T15:29:48.990Z,1.30
2023-05-30T15:32:17.466Z,1.30
2023-05-30T15:34:46.288Z,1.30
2023-05-30T15:37:14.523Z,1.50
2023-05-30T15:39:42.723Z,1.00
2023-05-30T15:42:11.096Z,1.40
2023-05-30T15:44:39.049Z,1.40
2023-05-30T15:47:09.425Z,1.40
2023-05-30T15:49:37.754Z,1.30
2023-05-30T15:52:06.650Z,1.40
2023-05-30T15:54:34.642Z,1.30
2023-05-30T15:57:03.889Z,1.40
2023-05-30T15:59:32.311Z,1.80
2023-05-30T16:02:02.321Z,1.80
2023-05-30T16:04:30.801Z,1.70
2023-05-30T16:06:59.180Z,1.50
2023-05-30T16:09:27.453Z,1.40
2023-05-30T16:11:55.424Z,1.60
2023-05-30T16:14:26.180Z,1.50
2023-05-30T16:16:54.500Z,1.50
2023-05-30T16:19:23.123Z,1.60
2023-05-30T16:21:51.392Z,1.60
2023-05-30T16:24:20.597Z,1.20
2023-05-30T16:26:48.970Z,1.50
2023-05-30T16:29:17.139Z,1.40
2023-05-30T16:31:45.361Z,1.40
2023-05-30T16:34:13.399Z,1.50
2023-05-30T16:36:44.041Z,1.40
2023-05-30T16:39:13.856Z,1.40
2023-05-30T16:41:42.301Z,1.30
2023-05-30T16:44:11.528Z,1.40
2023-05-30T16:46:42.047Z,1.50
2023-05-30T16:49:12.161Z,1.40
2023-05-30T16:51:41.492Z,1.40
2023-05-30T16:54:11.685Z,1.50
2023-05-30T16:56:39.925Z,1.60
2023-05-30T16:59:08.495Z,1.90
2023-05-30T17:01:36.872Z,1.40
2023-05-30T17:04:05.203Z,1.40
2023-05-30T17:06:34.510Z,1.30
2023-05-30T17:09:02.387Z,1.20
2023-05-30T17:11:30.576Z,1.40
2023-05-30T17:13:58.982Z,1.20
2023-05-30T17:16:27.245Z,1.60
2023-05-30T17:18:55.939Z,1.70
2023-05-30T17:21:24.684Z,1.40
2023-05-30T17:23:55.008Z,1.30
2023-05-30T17:26:24.611Z,1.40
2023-05-30T17:28:53.325Z,1.70
2023-05-30T17:31:21.628Z,1.30
2023-05-30T17:33:52.026Z,1.60
2023-05-30T17:36:19.920Z,1.40
2023-05-30T17:38:48.566Z,1.70
2023-05-30T17:41:18.888Z,1.50
2023-05-30T17:43:47.180Z,1.50
2023-05-30T17:46:15.894Z,1.40
2023-05-30T17:48:43.967Z,1.40
2023-05-30T17:51:12.327Z,1.50
2023-05-30T17:53:51.181Z,1.60
2023-05-30T17:56:25.024Z,1.50
2023-05-30T17:58:53.363Z,1.40
2023-05-30T18:01:22.241Z,1.30
2023-05-30T18:03:50.619Z,1.60
2023-05-30T18:06:27.057Z,1.60
2023-05-30T18:08:56.969Z,1.40
2023-05-30T18:11:25.547Z,1.40
2023-05-30T18:13:54.266Z,1.80
2023-05-30T18:16:23.786Z,1.60
2023-05-30T18:18:53.637Z,1.50
2023-05-30T18:21:22.860Z,1.30
2023-05-30T18:23:51.744Z,1.40
2023-05-30T18:26:21.429Z,1.50
2023-05-30T18:28:50.557Z,1.50
2023-05-30T18:31:19.155Z,1.90
2023-05-30T18:33:47.195Z,2.00
2023-05-30T18:36:16.410Z,2.60
2023-05-30T18:38:47.675Z,2.40
2023-05-30T18:41:17.673Z,1.70
2023-05-30T18:43:48.498Z,1.50
2023-05-30T18:46:18.010Z,1.90
2023-05-30T18:48:48.491Z,2.20
2023-05-30T18:51:19.955Z,1.60
2023-05-30T18:53:48.242Z,2.10
2023-05-30T18:56:17.978Z,1.60
2023-05-30T18:58:46.254Z,1.70
2023-05-30T19:01:16.075Z,2.40
2023-05-30T19:03:45.328Z,1.70
2023-05-30T19:06:14.714Z,2.10
2023-05-30T19:08:47.775Z,3.70
2023-05-30T19:11:19.521Z,4.70
2023-05-30T19:13:48.724Z,4.00
2023-05-30T19:16:19.888Z,3.60
2023-05-30T19:18:49.471Z,4.10
2023-05-30T19:21:18.046Z,5.80
2023-05-30T19:23:46.438Z,4.80
2023-05-30T19:26:17.071Z,5.90
2023-05-30T19:28:47.604Z,6.30
2023-05-30T19:31:18.032Z,6.20
2023-05-30T19:33:48.772Z,4.80
2023-05-30T19:36:18.706Z,8.20
2023-05-30T19:38:47.880Z,9.00
2023-05-30T19:41:18.564Z,9.70
2023-05-30T19:43:48.710Z,10.50
2023-05-30T19:46:17.408Z,9.60
2023-05-30T19:48:45.818Z,8.20
2023-05-30T19:51:16.628Z,8.70
2023-05-30T19:53:44.633Z,6.50
2023-05-30T19:56:14.500Z,5.40
2023-05-30T19:58:43.204Z,6.10
2023-05-30T20:01:11.248Z,6.10
2023-05-30T20:03:43.838Z,5.40
2023-05-30T20:06:16.040Z,6.20
2023-05-30T20:08:43.995Z,7.60
2023-05-30T20:11:12.994Z,8.20
2023-05-30T20:13:41.748Z,7.80
2023-05-30T20:16:13.683Z,8.50
2023-05-30T20:18:49.931Z,6.30
2023-05-30T20:21:20.062Z,7.20
2023-05-30T20:23:48.503Z,6.50
2023-05-30T20:26:16.542Z,7.70
2023-05-30T20:28:44.852Z,6.70
2023-05-30T20:31:13.643Z,6.30
2023-05-30T20:33:41.921Z,5.80
2023-05-30T20:36:12.077Z,6.30
2023-05-30T20:38:40.216Z,5.90
2023-05-30T20:41:08.394Z,5.70
2023-05-30T20:43:37.223Z,7.80
2023-05-30T20:46:05.458Z,8.40
2023-05-30T20:48:33.734Z,7.80
2023-05-30T20:51:02.239Z,10.00
2023-05-30T20:53:30.625Z,12.50
2023-05-30T20:55:58.867Z,15.90
2023-05-30T20:58:27.753Z,13.00
2023-05-30T21:00:56.024Z,11.20
2023-05-30T21:03:25.392Z,9.80
2023-05-30T21:05:53.529Z,8.30
2023-05-30T21:08:22.190Z,6.80
2023-05-30T21:10:50.033Z,4.40
2023-05-30T21:13:18.845Z,4.90
2023-05-30T21:15:47.230Z,4.90
2023-05-30T21:18:15.140Z,3.60
2023-05-30T21:20:44.195Z,3.70
2023-05-30T21:23:12.464Z,3.80
2023-05-30T21:25:41.566Z,3.40
2023-05-30T21:28:09.462Z,3.30
2023-05-30T21:30:38.101Z,2.80
2023-05-30T21:33:06.621Z,4.10
2023-05-30T21:35:34.914Z,2.80
2023-05-30T21:38:03.154Z,3.00
2023-05-30T21:40:31.024Z,2.50
2023-05-30T21:42:59.603Z,2.70
2023-05-30T21:45:28.154Z,2.60
2023-05-30T21:47:57.149Z,3.20
2023-05-30T21:50:25.035Z,2.90
2023-05-30T21:52:52.949Z,2.90
2023-05-30T21:55:21.602Z,2.90
2023-05-30T21:57:50.286Z,2.70
2023-05-30T22:00:19.466Z,2.70
2023-05-30T22:02:48.121Z,2.80
2023-05-30T22:05:17.113Z,2.50
2023-05-30T22:07:45.569Z,2.80
2023-05-30T22:10:13.905Z,2.40
2023-05-30T22:12:41.759Z,2.70
2023-05-30T22:15:10.693Z,2.20
2023-05-30T22:17:40.318Z,2.60
2023-05-30T22:20:09.700Z,2.30
2023-05-30T22:22:38.393Z,2.30
2023-05-30T22:25:07.381Z,2.50
2023-05-30T22:27:35.561Z,2.70
2023-05-30T22:30:04.260Z,2.00
2023-05-30T22:32:33.894Z,2.20
2023-05-30T22:35:03.000Z,2.20
2023-05-30T22:37:31.038Z,2.20
2023-05-30T22:39:59.562Z,2.30
2023-05-30T22:42:27.779Z,2.60
2023-05-30T22:44:56.158Z,2.40
2023-05-30T22:47:24.079Z,2.60
2023-05-30T22:49:52.211Z,3.30
2023-05-30T22:52:20.480Z,2.50
2023-05-30T22:54:48.755Z,2.50
2023-05-30T22:57:17.033Z,2.40
2023-05-30T22:59:44.970Z,2.30
2023-05-30T23:02:13.646Z,2.30
2023-05-30T23:04:42.268Z,2.40
2023-05-30T23:07:11.085Z,2.20
2023-05-30T23:09:39.252Z,2.30
2023-05-30T23:12:08.576Z,2.50
2023-05-30T23:14:37.057Z,2.10
2023-05-30T23:17:06.181Z,2.60
2023-05-30T23:19:34.359Z,2.10
2023-05-30T23:22:02.568Z,2.50
2023-05-30T23:24:30.406Z,2.30
2023-05-30T23:26:58.612Z,2.30
2023-05-30T23:29:27.009Z,2.30
2023-05-30T23:31:55.679Z,2.20
2023-05-30T23:34:23.514Z,2.10
2023-05-30T23:36:51.631Z,2.40
2023-05-30T23:39:19.606Z,1.80
2023-05-30T23:41:47.814Z,2.40
2023-05-30T23:44:16.544Z,2.20
2023-05-30T23:46:44.814Z,2.50
2023-05-30T23:49:16.808Z,2.40
2023-05-30T23:51:48.270Z,2.20
2023-05-30T23:54:16.744Z,2.50
2023-05-30T23:56:45.000Z,2.20
2023-05-30T23:59:13.199Z,2.60
